sensor_id;sensor_type;location;lat;lon;timestamp;temperature;humidity
7014;DHT22;3547;50.774;12.918;2022-11-04T00:01:32;10.90;1.00
7014;DHT22;3547;50.774;12.918;2022-11-04T00:03:59;10.90;1.00
7014;DHT22;3547;50.774;12.918;2022-11-04T00:06:25;11.00;1.00
7014;DHT22;3547;50.774;12.918;2022-11-04T00:08:53;11.00;1.00
7014;DHT22;3547;50.774;12.918;2022-11-04T00:11:24;11.00;1.00
7014;DHT22;3547;50.774;12.918;2022-11-04T00:14:10;11.00;1.00
7014;DHT22;3547;50.774;12.918;2022-11-04T00:16:37;11.00;1.00
7014;DHT22;3547;50.774;12.918;2022-11-04T00:19:22;11.00;1.00
7014;DHT22;3547;50.774;12.918;2022-11-04T00:21:49;11.00;1.00
7014;DHT22;3547;50.774;12.918;2022-11-04T00:24:34;11.00;1.00
7014;DHT22;3547;50.774;12.918;2022-11-04T00:27:20;11.10;1.00
7014;DHT22;3547;50.774;12.918;2022-11-04T00:30:07;11.10;1.00
7014;DHT22;3547;50.774;12.918;2022-11-04T00:32:35;11.10;1.00
7014;DHT22;3547;50.774;12.918;2022-11-04T00:38:43;11.20;1.00
7014;DHT22;3547;50.774;12.918;2022-11-04T00:41:22;11.10;1.00
7014;DHT22;3547;50.774;12.918;2022-11-04T00:44:05;11.20;1.00
7014;DHT22;3547;50.774;12.918;2022-11-04T00:46:32;11.20;1.00
7014;DHT22;3547;50.774;12.918;2022-11-04T00:48:58;11.20;1.00
7014;DHT22;3547;50.774;12.918;2022-11-04T00:51:30;11.20;1.00
7014;DHT22;3547;50.774;12.918;2022-11-04T00:53:56;11.20;1.00
7014;DHT22;3547;50.774;12.918;2022-11-04T00:56:25;11.20;1.00
7014;DHT22;3547;50.774;12.918;2022-11-04T00:58:52;11.20;1.00
7014;DHT22;3547;50.774;12.918;2022-11-04T01:01:21;11.30;1.00
7014;DHT22;3547;50.774;12.918;2022-11-04T01:03:52;11.30;1.00
7014;DHT22;3547;50.774;12.918;2022-11-04T01:06:20;11.30;1.00
7014;DHT22;3547;50.774;12.918;2022-11-04T01:08:47;11.30;1.00
7014;DHT22;3547;50.774;12.918;2022-11-04T01:11:13;11.30;1.00
7014;DHT22;3547;50.774;12.918;2022-11-04T01:13:40;11.40;1.00
7014;DHT22;3547;50.774;12.918;2022-11-04T01:16:09;11.40;1.00
7014;DHT22;3547;50.774;12.918;2022-11-04T01:18:36;11.40;1.00
7014;DHT22;3547;50.774;12.918;2022-11-04T01:21:04;11.40;1.00
7014;DHT22;3547;50.774;12.918;2022-11-04T01:23:32;11.50;1.00
7014;DHT22;3547;50.774;12.918;2022-11-04T01:25:59;11.50;1.00
7014;DHT22;3547;50.774;12.918;2022-11-04T01:28:25;11.50;1.00
7014;DHT22;3547;50.774;12.918;2022-11-04T01:30:52;11.50;1.00
7014;DHT22;3547;50.774;12.918;2022-11-04T01:33:18;11.50;1.00
7014;DHT22;3547;50.774;12.918;2022-11-04T01:35:44;11.30;1.00
7014;DHT22;3547;50.774;12.918;2022-11-04T01:38:16;11.40;1.00
7014;DHT22;3547;50.774;12.918;2022-11-04T01:40:42;11.50;1.00
7014;DHT22;3547;50.774;12.918;2022-11-04T01:43:15;11.50;1.00
7014;DHT22;3547;50.774;12.918;2022-11-04T01:45:43;11.40;1.00
7014;DHT22;3547;50.774;12.918;2022-11-04T01:48:18;11.30;1.00
7014;DHT22;3547;50.774;12.918;2022-11-04T01:50:47;11.30;1.00
7014;DHT22;3547;50.774;12.918;2022-11-04T01:53:17;11.20;1.00
7014;DHT22;3547;50.774;12.918;2022-11-04T01:55:53;11.20;1.00
7014;DHT22;3547;50.774;12.918;2022-11-04T01:58:23;11.30;1.00
7014;DHT22;3547;50.774;12.918;2022-11-04T02:00:51;11.30;1.00
7014;DHT22;3547;50.774;12.918;2022-11-04T02:03:24;11.10;1.00
7014;DHT22;3547;50.774;12.918;2022-11-04T02:05:51;10.90;1.00
7014;DHT22;3547;50.774;12.918;2022-11-04T02:08:19;10.90;1.00
7014;DHT22;3547;50.774;12.918;2022-11-04T02:10:58;10.70;1.00
7014;DHT22;3547;50.774;12.918;2022-11-04T02:13:26;10.80;1.00
7014;DHT22;3547;50.774;12.918;2022-11-04T02:18:34;10.70;1.00
7014;DHT22;3547;50.774;12.918;2022-11-04T02:24:07;10.70;1.00
7014;DHT22;3547;50.774;12.918;2022-11-04T02:37:49;10.40;1.00
7014;DHT22;3547;50.774;12.918;2022-11-04T02:45:42;10.40;1.00
7014;DHT22;3547;50.774;12.918;2022-11-04T02:54:37;10.50;1.00
7014;DHT22;3547;50.774;12.918;2022-11-04T02:57:06;10.50;1.00
7014;DHT22;3547;50.774;12.918;2022-11-04T02:59:54;10.60;1.00
7014;DHT22;3547;50.774;12.918;2022-11-04T03:02:26;10.70;1.00
7014;DHT22;3547;50.774;12.918;2022-11-04T03:04:54;10.70;1.00
7014;DHT22;3547;50.774;12.918;2022-11-04T03:07:26;10.70;1.00
7014;DHT22;3547;50.774;12.918;2022-11-04T03:09:58;10.80;1.00
7014;DHT22;3547;50.774;12.918;2022-11-04T03:12:29;10.80;1.00
7014;DHT22;3547;50.774;12.918;2022-11-04T03:15:04;10.80;1.00
7014;DHT22;3547;50.774;12.918;2022-11-04T03:17:41;10.80;1.00
7014;DHT22;3547;50.774;12.918;2022-11-04T03:20:19;10.80;1.00
7014;DHT22;3547;50.774;12.918;2022-11-04T03:22:46;10.80;1.00
7014;DHT22;3547;50.774;12.918;2022-11-04T03:25:12;10.70;1.00
7014;DHT22;3547;50.774;12.918;2022-11-04T03:30:53;10.80;1.00
7014;DHT22;3547;50.774;12.918;2022-11-04T03:33:46;10.70;1.00
7014;DHT22;3547;50.774;12.918;2022-11-04T03:36:11;10.70;1.00
7014;DHT22;3547;50.774;12.918;2022-11-04T03:38:37;10.70;1.00
7014;DHT22;3547;50.774;12.918;2022-11-04T03:41:11;10.80;1.00
7014;DHT22;3547;50.774;12.918;2022-11-04T03:43:41;10.80;1.00
7014;DHT22;3547;50.774;12.918;2022-11-04T03:46:08;10.80;1.00
7014;DHT22;3547;50.774;12.918;2022-11-04T03:48:34;10.80;1.00
7014;DHT22;3547;50.774;12.918;2022-11-04T03:51:01;10.80;1.00
7014;DHT22;3547;50.774;12.918;2022-11-04T03:53:28;10.80;1.00
7014;DHT22;3547;50.774;12.918;2022-11-04T03:59:14;10.80;1.00
7014;DHT22;3547;50.774;12.918;2022-11-04T04:01:52;10.80;1.00
7014;DHT22;3547;50.774;12.918;2022-11-04T04:04:29;10.80;1.00
7014;DHT22;3547;50.774;12.918;2022-11-04T04:07:20;10.80;1.00
7014;DHT22;3547;50.774;12.918;2022-11-04T04:10:00;10.90;1.00
7014;DHT22;3547;50.774;12.918;2022-11-04T04:12:55;10.70;1.00
7014;DHT22;3547;50.774;12.918;2022-11-04T04:15:30;10.80;1.00
7014;DHT22;3547;50.774;12.918;2022-11-04T05:27:28;10.30;56.10
7014;DHT22;3547;50.774;12.918;2022-11-04T05:30:18;10.30;99.90
7014;DHT22;3547;50.774;12.918;2022-11-04T05:32:45;10.20;1.00
7014;DHT22;3547;50.774;12.918;2022-11-04T05:35:14;10.20;99.90
7014;DHT22;3547;50.774;12.918;2022-11-04T05:37:45;10.20;99.90
7014;DHT22;3547;50.774;12.918;2022-11-04T05:40:14;10.20;97.60
7014;DHT22;3547;50.774;12.918;2022-11-04T05:42:41;10.20;10.80
7014;DHT22;3547;50.774;12.918;2022-11-04T05:45:20;10.20;99.90
7014;DHT22;3547;50.774;12.918;2022-11-04T05:47:58;10.20;1.00
7014;DHT22;3547;50.774;12.918;2022-11-04T05:50:27;10.20;1.00
7014;DHT22;3547;50.774;12.918;2022-11-04T05:52:56;10.10;99.90
7014;DHT22;3547;50.774;12.918;2022-11-04T05:55:44;10.20;99.90
7014;DHT22;3547;50.774;12.918;2022-11-04T05:58:17;10.20;1.00
7014;DHT22;3547;50.774;12.918;2022-11-04T06:06:10;10.10;1.00
7014;DHT22;3547;50.774;12.918;2022-11-04T06:21:55;10.20;1.00
7014;DHT22;3547;50.774;12.918;2022-11-04T06:24:29;10.10;99.90
7014;DHT22;3547;50.774;12.918;2022-11-04T06:26:59;10.00;1.00
7014;DHT22;3547;50.774;12.918;2022-11-04T06:29:25;10.00;1.00
7014;DHT22;3547;50.774;12.918;2022-11-04T06:32:18;10.00;12.90
7014;DHT22;3547;50.774;12.918;2022-11-04T06:37:53;9.90;99.90
7014;DHT22;3547;50.774;12.918;2022-11-04T06:44:14;9.90;99.90
7014;DHT22;3547;50.774;12.918;2022-11-04T06:46:47;9.90;50.50
7014;DHT22;3547;50.774;12.918;2022-11-04T09:48:50;10.00;28.10
7014;DHT22;3547;50.774;12.918;2022-11-04T09:51:23;10.00;1.00
7014;DHT22;3547;50.774;12.918;2022-11-04T09:53:54;10.00;99.90
7014;DHT22;3547;50.774;12.918;2022-11-04T09:56:36;10.00;62.50
7014;DHT22;3547;50.774;12.918;2022-11-04T09:59:04;10.00;40.70
7014;DHT22;3547;50.774;12.918;2022-11-04T10:01:53;10.00;57.10
7014;DHT22;3547;50.774;12.918;2022-11-04T10:07:19;9.90;99.60
7014;DHT22;3547;50.774;12.918;2022-11-04T11:14:53;9.50;17.30
7014;DHT22;3547;50.774;12.918;2022-11-04T12:43:38;9.80;54.50
7014;DHT22;3547;50.774;12.918;2022-11-04T12:46:39;9.80;99.90
7014;DHT22;3547;50.774;12.918;2022-11-04T12:57:48;10.00;1.00
7014;DHT22;3547;50.774;12.918;2022-11-04T13:00:23;10.00;1.00
7014;DHT22;3547;50.774;12.918;2022-11-04T13:03:09;10.00;76.60
7014;DHT22;3547;50.774;12.918;2022-11-04T13:05:55;9.90;1.00
7014;DHT22;3547;50.774;12.918;2022-11-04T13:11:24;9.90;1.00
7014;DHT22;3547;50.774;12.918;2022-11-04T13:16:49;9.80;99.90
7014;DHT22;3547;50.774;12.918;2022-11-04T16:56:32;8.40;39.90
7014;DHT22;3547;50.774;12.918;2022-11-04T16:58:59;8.40;99.90
7014;DHT22;3547;50.774;12.918;2022-11-04T17:01:27;8.40;8.30
7014;DHT22;3547;50.774;12.918;2022-11-04T17:03:54;8.40;70.20
7014;DHT22;3547;50.774;12.918;2022-11-04T17:06:20;8.40;99.90
7014;DHT22;3547;50.774;12.918;2022-11-04T17:08:46;8.40;1.00
7014;DHT22;3547;50.774;12.918;2022-11-04T17:11:12;8.40;33.30
7014;DHT22;3547;50.774;12.918;2022-11-04T17:13:39;8.40;1.00
7014;DHT22;3547;50.774;12.918;2022-11-04T17:16:06;8.40;1.00
7014;DHT22;3547;50.774;12.918;2022-11-04T17:18:35;8.40;99.90
7014;DHT22;3547;50.774;12.918;2022-11-04T17:21:06;8.40;1.00
7014;DHT22;3547;50.774;12.918;2022-11-04T17:23:32;8.40;1.00
7014;DHT22;3547;50.774;12.918;2022-11-04T17:26:01;8.40;1.00
7014;DHT22;3547;50.774;12.918;2022-11-04T17:28:28;8.40;1.00
7014;DHT22;3547;50.774;12.918;2022-11-04T17:30:56;8.40;1.00
7014;DHT22;3547;50.774;12.918;2022-11-04T17:33:23;8.40;99.90
7014;DHT22;3547;50.774;12.918;2022-11-04T17:35:50;8.40;99.90
7014;DHT22;3547;50.774;12.918;2022-11-04T17:38:19;8.40;4.30
7014;DHT22;3547;50.774;12.918;2022-11-04T17:40:46;8.30;7.10
7014;DHT22;3547;50.774;12.918;2022-11-04T17:43:30;8.30;1.00
7014;DHT22;3547;50.774;12.918;2022-11-04T17:46:16;8.30;1.00
7014;DHT22;3547;50.774;12.918;2022-11-04T17:51:29;8.40;1.00
7014;DHT22;3547;50.774;12.918;2022-11-04T17:53:58;8.40;1.00
7014;DHT22;3547;50.774;12.918;2022-11-04T17:56:25;8.30;1.00
7014;DHT22;3547;50.774;12.918;2022-11-04T17:58:52;8.30;99.90
7014;DHT22;3547;50.774;12.918;2022-11-04T18:01:20;8.30;99.90
7014;DHT22;3547;50.774;12.918;2022-11-04T18:03:47;8.30;1.00
7014;DHT22;3547;50.774;12.918;2022-11-04T18:06:16;8.30;61.90
7014;DHT22;3547;50.774;12.918;2022-11-04T18:08:42;8.40;1.00
7014;DHT22;3547;50.774;12.918;2022-11-04T18:14:31;8.30;1.00
7014;DHT22;3547;50.774;12.918;2022-11-04T18:16:58;8.40;95.70
7014;DHT22;3547;50.774;12.918;2022-11-04T18:25:14;8.40;1.00
7014;DHT22;3547;50.774;12.918;2022-11-04T18:27:49;8.40;95.70
7014;DHT22;3547;50.774;12.918;2022-11-04T18:30:16;8.40;1.00
7014;DHT22;3547;50.774;12.918;2022-11-04T18:32:57;8.40;1.00
7014;DHT22;3547;50.774;12.918;2022-11-04T18:35:35;8.30;1.00
7014;DHT22;3547;50.774;12.918;2022-11-04T18:42:01;8.40;99.90
7014;DHT22;3547;50.774;12.918;2022-11-04T18:50:03;8.40;99.90
7014;DHT22;3547;50.774;12.918;2022-11-04T18:52:29;8.30;28.40
7014;DHT22;3547;50.774;12.918;2022-11-04T18:54:55;8.30;1.00
7014;DHT22;3547;50.774;12.918;2022-11-04T18:57:21;8.30;99.90
7014;DHT22;3547;50.774;12.918;2022-11-04T18:59:48;8.30;1.00
7014;DHT22;3547;50.774;12.918;2022-11-04T19:02:19;8.30;1.00
7014;DHT22;3547;50.774;12.918;2022-11-04T19:04:49;8.30;1.00
7014;DHT22;3547;50.774;12.918;2022-11-04T19:07:15;8.30;16.80
7014;DHT22;3547;50.774;12.918;2022-11-04T19:09:42;8.30;1.00
7014;DHT22;3547;50.774;12.918;2022-11-04T19:12:08;8.30;1.00
7014;DHT22;3547;50.774;12.918;2022-11-04T19:14:53;8.30;99.90
7014;DHT22;3547;50.774;12.918;2022-11-04T19:17:20;8.30;1.00
7014;DHT22;3547;50.774;12.918;2022-11-04T19:19:46;8.30;1.00
7014;DHT22;3547;50.774;12.918;2022-11-04T19:22:12;8.30;99.90
7014;DHT22;3547;50.774;12.918;2022-11-04T19:24:39;8.30;1.00
7014;DHT22;3547;50.774;12.918;2022-11-04T19:27:05;8.30;1.00
7014;DHT22;3547;50.774;12.918;2022-11-04T19:29:32;8.30;1.00
7014;DHT22;3547;50.774;12.918;2022-11-04T19:31:59;8.30;1.00
7014;DHT22;3547;50.774;12.918;2022-11-04T19:34:25;8.30;99.90
7014;DHT22;3547;50.774;12.918;2022-11-04T19:37:00;8.30;13.90
7014;DHT22;3547;50.774;12.918;2022-11-04T20:12:40;8.20;99.90
7014;DHT22;3547;50.774;12.918;2022-11-04T20:15:46;8.20;1.00
7014;DHT22;3547;50.774;12.918;2022-11-04T20:31:15;8.00;1.00
7014;DHT22;3547;50.774;12.918;2022-11-04T20:33:46;8.10;1.00
7014;DHT22;3547;50.774;12.918;2022-11-04T20:42:23;8.00;1.00
7014;DHT22;3547;50.774;12.918;2022-11-04T23:37:16;7.40;1.00
7014;DHT22;3547;50.774;12.918;2022-11-04T23:39:45;7.30;95.30
7014;DHT22;3547;50.774;12.918;2022-11-04T23:42:15;7.40;1.00
7014;DHT22;3547;50.774;12.918;2022-11-04T23:44:43;7.30;99.90
7014;DHT22;3547;50.774;12.918;2022-11-04T23:47:29;7.30;99.90
7014;DHT22;3547;50.774;12.918;2022-11-04T23:50:14;7.30;99.90
7014;DHT22;3547;50.774;12.918;2022-11-04T23:53:01;7.40;1.00
7014;DHT22;3547;50.774;12.918;2022-11-04T23:55:46;7.30;1.00
7014;DHT22;3547;50.774;12.918;2022-11-04T23:58:34;7.40;1.00
